createdAt,value
2022-12-23T00:00:58.911Z,99343.48
2022-12-23T00:03:30.379Z,99343.06
2022-12-23T00:06:01.256Z,99340.26
2022-12-23T00:08:31.792Z,99337.48
2022-12-23T00:11:02.322Z,99342.41
2022-12-23T00:13:50.498Z,99339.80
2022-12-23T00:16:21.460Z,99333.38
2022-12-23T00:18:52.019Z,99335.80
2022-12-23T00:21:23.582Z,99340.71
2022-12-23T00:23:54.388Z,99341.34
2022-12-23T00:26:27.229Z,99337.52
2022-12-23T00:28:59.497Z,99335.23
2022-12-23T00:31:28.507Z,99335.27
2022-12-23T00:33:59.111Z,99339.56
2022-12-23T00:36:31.323Z,99340.46
2022-12-23T00:39:19.830Z,99341.71
2022-12-23T00:42:07.980Z,99340.41
2022-12-23T00:44:38.462Z,99337.18
2022-12-23T00:47:28.995Z,99337.70
2022-12-23T00:49:59.451Z,99340.17
2022-12-23T00:52:29.915Z,99339.61
2022-12-23T00:55:00.539Z,99340.86
2022-12-23T00:57:31.000Z,99341.08
2022-12-23T01:00:01.477Z,99334.33
2022-12-23T01:02:49.877Z,99331.45
2022-12-23T01:05:37.558Z,99319.05
2022-12-23T01:08:10.539Z,99314.29
2022-12-23T01:10:42.015Z,99315.45
2022-12-23T01:13:12.497Z,99316.09
2022-12-23T01:15:42.946Z,99314.38
2022-12-23T01:18:13.377Z,99313.83
2022-12-23T01:20:43.859Z,99309.88
2022-12-23T01:23:14.320Z,99306.98
2022-12-23T01:25:44.768Z,99302.80
2022-12-23T01:28:15.233Z,99302.00
2022-12-23T01:30:45.710Z,99298.40
2022-12-23T01:33:16.145Z,99296.95
2022-12-23T01:35:46.678Z,99292.42
2022-12-23T01:38:17.147Z,99288.58
2022-12-23T01:40:48.318Z,99282.48
2022-12-23T01:43:21.503Z,99278.25
2022-12-23T01:45:52.479Z,99278.05
2022-12-23T01:48:25.586Z,99274.16
2022-12-23T01:51:01.290Z,99274.88
2022-12-23T01:53:35.692Z,99268.91
2022-12-23T01:56:11.373Z,99269.80
2022-12-23T01:58:47.508Z,99269.97
2022-12-23T02:01:36.048Z,99268.20
2022-12-23T02:04:09.922Z,99268.48
2022-12-23T02:07:00.694Z,99267.33
2022-12-23T02:09:33.327Z,99261.63
2022-12-23T02:12:31.073Z,99259.48
2022-12-23T02:15:38.921Z,99258.36
2022-12-23T02:18:31.751Z,99251.09
2022-12-23T02:21:18.173Z,99252.68
2022-12-23T02:24:28.723Z,99254.63
2022-12-23T02:27:20.090Z,99252.95
2022-12-23T02:30:14.486Z,99255.20
2022-12-23T02:32:58.959Z,99252.66
2022-12-23T02:35:33.150Z,99252.16
2022-12-23T02:38:11.561Z,99248.19
2022-12-23T02:40:52.026Z,99243.66
2022-12-23T02:43:32.479Z,99245.40
2022-12-23T02:46:10.318Z,99237.29
2022-12-23T02:48:45.410Z,99232.56
2022-12-23T02:51:17.204Z,99235.44
2022-12-23T02:53:52.141Z,99235.23
2022-12-23T02:56:24.899Z,99241.98
2022-12-23T02:59:00.059Z,99245.84
2022-12-23T03:01:33.551Z,99249.88
2022-12-23T03:04:06.061Z,99250.48
2022-12-23T03:06:41.035Z,99249.05
2022-12-23T03:09:17.296Z,99251.52
2022-12-23T03:11:55.817Z,99250.66
2022-12-23T03:14:44.277Z,99253.20
2022-12-23T03:17:32.274Z,99250.30
2022-12-23T03:20:10.830Z,99244.52
2022-12-23T03:22:48.112Z,99248.92
2022-12-23T03:25:24.092Z,99244.20
2022-12-23T03:28:00.744Z,99244.88
2022-12-23T03:30:34.135Z,99241.41
2022-12-23T03:33:09.068Z,99242.23
2022-12-23T03:35:44.933Z,99243.19
2022-12-23T03:38:19.557Z,99242.39
2022-12-23T03:40:55.560Z,99239.69
2022-12-23T03:43:29.835Z,99234.11
2022-12-23T03:46:04.672Z,99235.65
2022-12-23T03:48:38.756Z,99228.35
2022-12-23T03:51:15.774Z,99229.90
2022-12-23T03:53:49.771Z,99225.98
2022-12-23T03:56:27.148Z,99231.25
2022-12-23T03:59:01.888Z,99233.14
2022-12-23T04:01:44.020Z,99230.38
2022-12-23T04:04:24.311Z,99230.33
2022-12-23T04:07:00.532Z,99233.01
2022-12-23T04:09:31.477Z,99235.70
2022-12-23T04:12:02.085Z,99229.91
2022-12-23T04:14:35.177Z,99222.03
2022-12-23T04:17:05.649Z,99223.45
2022-12-23T04:19:36.129Z,99222.69
2022-12-23T04:22:06.667Z,99220.71
2022-12-23T04:24:37.218Z,99225.17
2022-12-23T04:27:08.088Z,99221.65
2022-12-23T04:29:38.766Z,99215.75
2022-12-23T04:32:09.530Z,99212.52
2022-12-23T04:34:39.939Z,99212.00
2022-12-23T04:37:11.173Z,99210.96
2022-12-23T04:39:41.624Z,99211.14
2022-12-23T04:42:12.135Z,99206.56
2022-12-23T04:44:42.557Z,99201.30
2022-12-23T04:47:13.085Z,99197.92
2022-12-23T04:49:43.718Z,99196.20
2022-12-23T04:52:14.377Z,99195.71
2022-12-23T04:54:46.442Z,99190.92
2022-12-23T04:57:16.086Z,99185.21
2022-12-23T04:59:46.754Z,99180.85
2022-12-23T05:02:17.299Z,99181.63
2022-12-23T05:04:47.892Z,99179.45
2022-12-23T05:07:18.348Z,99177.36
2022-12-23T05:09:48.761Z,99172.52
2022-12-23T05:12:19.921Z,99173.08
2022-12-23T05:14:50.374Z,99170.73
2022-12-23T05:17:20.980Z,99172.60
2022-12-23T05:19:51.410Z,99172.29
2022-12-23T05:22:21.821Z,99171.42
2022-12-23T05:24:52.270Z,99168.02
2022-12-23T05:27:23.108Z,99169.70
2022-12-23T05:29:53.558Z,99170.52
2022-12-23T05:32:24.004Z,99167.45
2022-12-23T05:34:56.444Z,99168.62
2022-12-23T05:37:27.162Z,99171.42
2022-12-23T05:39:57.609Z,99167.59
2022-12-23T05:42:28.106Z,99170.06
2022-12-23T05:44:58.553Z,99171.96
2022-12-23T05:47:29.025Z,99172.52
2022-12-23T05:49:59.461Z,99170.67
2022-12-23T05:52:29.983Z,99173.90
2022-12-23T05:55:00.470Z,99173.75
2022-12-23T05:57:32.035Z,99171.21
2022-12-23T06:00:02.629Z,99170.48
2022-12-23T06:02:45.121Z,99167.58
2022-12-23T06:05:18.031Z,99169.23
2022-12-23T06:07:48.477Z,99170.42
2022-12-23T06:10:19.309Z,99168.38
2022-12-23T06:12:49.875Z,99173.80
2022-12-23T06:15:20.532Z,99182.73
2022-12-23T06:17:51.020Z,99182.67
2022-12-23T06:20:21.620Z,99186.16
2022-12-23T06:22:52.164Z,99185.04
2022-12-23T06:25:22.996Z,99185.28
2022-12-23T06:27:53.436Z,99181.10
2022-12-23T06:30:23.954Z,99180.30
2022-12-23T06:32:54.401Z,99176.79
2022-12-23T06:35:25.118Z,99173.75
2022-12-23T06:37:56.369Z,99178.19
2022-12-23T06:40:29.232Z,99179.07
2022-12-23T06:42:59.807Z,99176.80
2022-12-23T06:45:30.690Z,99177.98
2022-12-23T06:48:01.127Z,99181.84
2022-12-23T06:50:31.521Z,99185.05
2022-12-23T06:53:02.205Z,99184.95
2022-12-23T06:55:33.754Z,99182.42
2022-12-23T06:58:04.208Z,99181.59
2022-12-23T07:00:34.877Z,99181.06
2022-12-23T07:03:05.475Z,99181.02
2022-12-23T07:05:37.820Z,99179.98
2022-12-23T07:08:08.851Z,99178.90
2022-12-23T07:10:39.393Z,99179.00
2022-12-23T07:13:10.132Z,99185.41
2022-12-23T07:15:40.876Z,99183.48
2022-12-23T07:18:11.367Z,99182.34
2022-12-23T07:20:41.781Z,99178.95
2022-12-23T07:23:12.235Z,99179.48
2022-12-23T07:25:42.686Z,99182.08
2022-12-23T07:28:13.131Z,99183.25
2022-12-23T07:30:44.185Z,99181.69
2022-12-23T07:33:14.596Z,99182.19
2022-12-23T07:35:45.078Z,99176.88
2022-12-23T07:38:15.508Z,99175.81
2022-12-23T07:40:49.261Z,99175.09
2022-12-23T07:43:19.851Z,99177.05
2022-12-23T07:45:57.318Z,99177.05
2022-12-23T07:48:30.647Z,99179.93
2022-12-23T07:51:04.614Z,99178.67
2022-12-23T07:53:35.100Z,99179.61
2022-12-23T07:56:06.309Z,99182.89
2022-12-23T07:58:36.988Z,99182.11
2022-12-23T08:01:09.005Z,99181.48
2022-12-23T08:03:39.805Z,99181.35
2022-12-23T08:06:12.792Z,99183.25
2022-12-23T08:08:44.646Z,99182.27
2022-12-23T08:11:16.778Z,99186.21
2022-12-23T08:13:48.326Z,99185.17
2022-12-23T08:16:18.810Z,99179.17
2022-12-23T08:18:49.336Z,99175.40
2022-12-23T08:21:21.039Z,99167.39
2022-12-23T08:23:52.327Z,99164.70
2022-12-23T08:26:25.173Z,99169.38
2022-12-23T08:28:56.018Z,99164.33
2022-12-23T08:31:28.802Z,99167.30
2022-12-23T08:34:00.241Z,99164.46
2022-12-23T08:36:32.484Z,99166.55
2022-12-23T08:39:03.188Z,99167.27
2022-12-23T08:41:36.918Z,99168.98
2022-12-23T08:44:08.289Z,99166.10
2022-12-23T08:46:39.807Z,99163.02
2022-12-23T08:49:10.856Z,99164.16
2022-12-23T08:51:42.755Z,99162.80
2022-12-23T08:54:13.796Z,99154.64
2022-12-23T08:56:44.701Z,99154.61
2022-12-23T08:59:19.535Z,99151.23
2022-12-23T09:01:50.907Z,99152.89
2022-12-23T09:04:21.502Z,99153.65
2022-12-23T09:06:52.272Z,99154.58
2022-12-23T09:09:22.896Z,99152.73
2022-12-23T09:11:53.379Z,99154.48
2022-12-23T09:14:23.961Z,99155.06
2022-12-23T09:16:54.590Z,99155.95
2022-12-23T09:19:25.121Z,99153.27
2022-12-23T09:21:55.613Z,99158.06
2022-12-23T09:24:26.079Z,99156.70
2022-12-23T09:26:56.620Z,99159.41
2022-12-23T09:29:27.173Z,99154.84
2022-12-23T09:31:57.814Z,99156.14
2022-12-23T09:34:28.468Z,99157.41
2022-12-23T09:36:59.041Z,99154.55
2022-12-23T09:39:29.474Z,99158.47
2022-12-23T09:42:07.510Z,99158.98
2022-12-23T09:44:47.510Z,99161.89
2022-12-23T09:47:23.140Z,99160.33
2022-12-23T09:49:56.489Z,99154.70
2022-12-23T09:52:35.194Z,99156.58
2022-12-23T09:55:10.341Z,99156.39
2022-12-23T09:57:49.437Z,99156.72
2022-12-23T10:00:22.709Z,99158.24
2022-12-23T10:03:15.436Z,99159.17
2022-12-23T10:05:58.213Z,99161.41
2022-12-23T10:08:34.380Z,99163.46
2022-12-23T10:11:11.081Z,99158.54
2022-12-23T10:13:46.350Z,99156.70
2022-12-23T10:16:20.363Z,99162.03
2022-12-23T10:18:58.818Z,99161.73
2022-12-23T10:21:36.308Z,99159.90
2022-12-23T10:24:14.229Z,99161.27
2022-12-23T10:26:52.975Z,99156.89
2022-12-23T10:29:24.900Z,99154.30
2022-12-23T10:32:08.106Z,99153.79
2022-12-23T10:34:49.001Z,99157.06
2022-12-23T10:37:29.425Z,99156.02
2022-12-23T10:40:12.695Z,99157.20
2022-12-23T10:42:54.188Z,99157.33
2022-12-23T10:45:35.774Z,99157.09
2022-12-23T10:48:17.252Z,99153.66
2022-12-23T10:50:56.823Z,99151.13
2022-12-23T10:53:36.977Z,99157.02
2022-12-23T10:56:09.444Z,99154.52
2022-12-23T10:58:44.463Z,99155.45
2022-12-23T11:01:25.986Z,99155.84
2022-12-23T11:04:07.572Z,99151.30
2022-12-23T11:06:42.965Z,99153.37
2022-12-23T11:09:20.385Z,99148.77
2022-12-23T11:12:03.052Z,99152.67
2022-12-23T11:14:41.651Z,99153.52
2022-12-23T11:17:23.827Z,99157.08
2022-12-23T11:20:13.516Z,99160.31
2022-12-23T11:22:52.193Z,99158.19
2022-12-23T11:25:37.278Z,99163.20
2022-12-23T11:28:08.726Z,99163.89
2022-12-23T11:30:55.426Z,99165.75
2022-12-23T11:33:29.993Z,99163.33
2022-12-23T11:36:07.427Z,99167.41
2022-12-23T11:38:48.308Z,99160.74
2022-12-23T11:41:25.008Z,99161.36
2022-12-23T11:44:01.058Z,99164.06
2022-12-23T11:46:34.251Z,99165.77
2022-12-23T11:49:17.085Z,99166.54
2022-12-23T11:51:49.786Z,99164.73
2022-12-23T11:54:23.356Z,99159.35
2022-12-23T11:56:56.014Z,99155.83
2022-12-23T11:59:34.001Z,99155.16
2022-12-23T12:02:12.737Z,99156.38
2022-12-23T12:04:43.904Z,99155.54
2022-12-23T12:07:20.477Z,99159.31
2022-12-23T12:09:51.513Z,99159.02
2022-12-23T12:12:24.095Z,99159.03
2022-12-23T12:14:56.469Z,99160.23
2022-12-23T12:17:33.968Z,99156.91
2022-12-23T12:20:11.866Z,99154.57
2022-12-23T12:22:46.882Z,99152.05
2022-12-23T12:25:23.735Z,99154.95
2022-12-23T12:28:08.354Z,99149.68
2022-12-23T12:30:45.273Z,99149.19
2022-12-23T12:33:20.375Z,99156.34
2022-12-23T12:36:00.251Z,99157.52
2022-12-23T12:38:37.156Z,99160.89
2022-12-23T12:41:17.443Z,99162.73
2022-12-23T12:44:01.700Z,99173.66
2022-12-23T12:46:35.206Z,99174.88
2022-12-23T12:49:15.662Z,99179.33
2022-12-23T12:51:52.523Z,99183.11
2022-12-23T12:54:26.744Z,99186.02
2022-12-23T12:56:59.018Z,99192.34
2022-12-23T12:59:35.803Z,99194.19
2022-12-23T13:02:38.108Z,99192.80
2022-12-23T13:05:35.021Z,99194.30
2022-12-23T13:08:20.201Z,99196.70
2022-12-23T13:10:55.113Z,99202.35
2022-12-23T13:13:41.203Z,99207.30
2022-12-23T13:16:22.525Z,99208.75
2022-12-23T13:19:00.835Z,99210.80
2022-12-23T13:21:38.534Z,99214.59
2022-12-23T13:24:19.906Z,99213.57
2022-12-23T13:27:00.554Z,99221.95
2022-12-23T13:29:56.128Z,99226.57
2022-12-23T13:32:42.061Z,99226.56
2022-12-23T13:35:23.923Z,99229.64
2022-12-23T13:38:01.492Z,99230.17
2022-12-23T13:40:39.988Z,99230.89
2022-12-23T13:43:13.161Z,99232.86
2022-12-23T13:45:45.772Z,99239.70
2022-12-23T13:48:33.624Z,99235.31
2022-12-23T13:51:11.488Z,99229.34
2022-12-23T13:54:04.561Z,99228.83
2022-12-23T13:56:44.201Z,99226.56
2022-12-23T13:59:16.668Z,99223.47
2022-12-23T14:01:49.907Z,99221.89
2022-12-23T14:04:36.976Z,99219.96
2022-12-23T14:07:19.359Z,99212.95
2022-12-23T14:09:54.806Z,99213.27
2022-12-23T14:12:30.727Z,99210.91
2022-12-23T14:15:38.130Z,99218.06
2022-12-23T14:18:28.266Z,99223.20
2022-12-23T14:21:09.214Z,99222.19
2022-12-23T14:23:53.281Z,99224.75
2022-12-23T14:26:40.511Z,99226.79
2022-12-23T14:29:30.077Z,99227.47
2022-12-23T14:32:00.915Z,99221.98
2022-12-23T14:34:34.248Z,99226.63
2022-12-23T14:37:35.460Z,99227.05
2022-12-23T14:40:36.779Z,99225.03
2022-12-23T14:43:32.040Z,99227.94
2022-12-23T14:46:05.893Z,99225.34
2022-12-23T14:52:27.711Z,99228.88
2022-12-23T14:55:30.178Z,99229.17
2022-12-23T14:58:10.134Z,99231.02
2022-12-23T15:00:51.314Z,99226.36
2022-12-23T15:03:23.705Z,99230.24
2022-12-23T15:06:08.148Z,99230.73
2022-12-23T15:08:42.305Z,99240.32
2022-12-23T15:11:22.742Z,99241.17
2022-12-23T15:13:56.102Z,99239.30
2022-12-23T15:16:33.553Z,99238.45
2022-12-23T15:19:17.480Z,99238.79
2022-12-23T15:21:54.455Z,99239.99
2022-12-23T15:24:30.974Z,99238.96
2022-12-23T15:27:25.866Z,99237.42
2022-12-23T15:29:54.241Z,99231.95
2022-12-23T15:32:26.585Z,99230.20
2022-12-23T15:35:03.030Z,99234.48
2022-12-23T15:37:34.914Z,99235.14
2022-12-23T15:40:12.615Z,99234.62
2022-12-23T15:42:49.785Z,99234.25
2022-12-23T15:45:33.863Z,99237.16
2022-12-23T15:48:06.155Z,99239.04
2022-12-23T15:50:42.477Z,99234.58
2022-12-23T15:53:16.958Z,99232.17
2022-12-23T15:55:48.530Z,99224.30
2022-12-23T15:58:24.538Z,99219.84
2022-12-23T16:00:58.044Z,99223.82
2022-12-23T16:03:35.307Z,99228.28
2022-12-23T16:06:18.788Z,99225.06
2022-12-23T16:08:58.746Z,99232.06
2022-12-23T16:11:42.382Z,99234.28
2022-12-23T16:14:35.306Z,99232.90
2022-12-23T16:17:22.639Z,99232.20
2022-12-23T16:19:55.024Z,99235.09
2022-12-23T16:22:34.376Z,99235.92
2022-12-23T16:25:13.454Z,99238.31
2022-12-23T16:27:47.935Z,99237.52
2022-12-23T16:30:22.695Z,99236.36
2022-12-23T16:32:55.950Z,99237.90
2022-12-23T16:35:34.655Z,99237.89
2022-12-23T16:38:18.202Z,99237.86
2022-12-23T16:40:51.309Z,99234.41
2022-12-23T16:43:23.069Z,99237.46
2022-12-23T16:45:56.129Z,99234.68
2022-12-23T16:48:31.596Z,99232.95
2022-12-23T16:51:04.876Z,99231.39
2022-12-23T16:53:35.378Z,99234.00
2022-12-23T16:56:11.204Z,99240.20
2022-12-23T16:58:41.890Z,99245.16
2022-12-23T17:01:18.175Z,99246.52
2022-12-23T17:03:48.806Z,99250.78
2022-12-23T17:06:20.440Z,99251.27
2022-12-23T17:08:53.230Z,99253.48
2022-12-23T17:11:27.752Z,99249.54
2022-12-23T17:14:04.089Z,99253.80
2022-12-23T17:16:36.377Z,99255.03
2022-12-23T17:19:07.320Z,99250.84
2022-12-23T17:21:39.663Z,99255.44
2022-12-23T17:24:15.243Z,99256.31
2022-12-23T17:26:45.693Z,99253.73
2022-12-23T17:29:16.508Z,99260.73
2022-12-23T17:31:48.733Z,99262.95
2022-12-23T17:34:21.566Z,99260.05
2022-12-23T17:36:52.894Z,99254.75
2022-12-23T17:39:24.093Z,99256.94
2022-12-23T17:41:54.523Z,99252.65
2022-12-23T17:44:25.011Z,99255.77
2022-12-23T17:46:55.528Z,99256.96
2022-12-23T17:49:25.974Z,99252.87
2022-12-23T17:51:56.603Z,99250.13
2022-12-23T17:54:27.579Z,99253.55
2022-12-23T17:56:58.415Z,99254.22
2022-12-23T17:59:28.919Z,99256.58
2022-12-23T18:01:59.417Z,99258.23
2022-12-23T18:04:29.971Z,99256.30
2022-12-23T18:07:00.600Z,99253.02
2022-12-23T18:09:31.066Z,99246.34
2022-12-23T18:12:01.868Z,99241.10
2022-12-23T18:14:32.509Z,99236.15
2022-12-23T18:17:02.979Z,99234.45
2022-12-23T18:19:33.931Z,99229.30
2022-12-23T18:22:04.495Z,99237.30
2022-12-23T18:24:34.952Z,99244.62
2022-12-23T18:27:07.498Z,99247.81
2022-12-23T18:29:37.929Z,99251.88
2022-12-23T18:32:14.192Z,99252.19
2022-12-23T18:34:44.724Z,99247.00
2022-12-23T18:37:15.195Z,99246.80
2022-12-23T18:39:46.073Z,99242.08
2022-12-23T18:42:18.847Z,99240.91
2022-12-23T18:44:50.165Z,99240.59
2022-12-23T18:47:20.620Z,99237.34
2022-12-23T18:49:51.095Z,99231.34
2022-12-23T18:52:21.684Z,99234.89
2022-12-23T18:54:53.487Z,99233.85
2022-12-23T18:57:24.201Z,99226.99
2022-12-23T18:59:55.310Z,99219.79
2022-12-23T19:02:25.868Z,99224.02
2022-12-23T19:04:56.343Z,99216.30
2022-12-23T19:07:26.844Z,99210.85
2022-12-23T19:09:57.767Z,99209.05
2022-12-23T19:12:28.240Z,99207.04
2022-12-23T19:14:58.661Z,99198.53
2022-12-23T19:17:29.768Z,99195.95
2022-12-23T19:20:00.425Z,99197.99
2022-12-23T19:22:30.875Z,99201.89
2022-12-23T19:25:05.913Z,99197.95
2022-12-23T19:27:39.450Z,99186.98
2022-12-23T19:30:15.627Z,99184.22
2022-12-23T19:32:46.438Z,99185.72
2022-12-23T19:35:17.405Z,99175.09
2022-12-23T19:37:47.911Z,99171.14
2022-12-23T19:40:18.448Z,99169.98
2022-12-23T19:42:49.317Z,99172.73
2022-12-23T19:45:19.949Z,99174.11
2022-12-23T19:47:50.409Z,99176.50
2022-12-23T19:50:22.378Z,99176.66
2022-12-23T19:52:54.821Z,99173.23
2022-12-23T19:55:25.387Z,99162.83
2022-12-23T19:57:55.859Z,99161.60
2022-12-23T20:00:26.496Z,99170.29
2022-12-23T20:02:59.162Z,99164.96
2022-12-23T20:05:30.224Z,99166.79
2022-12-23T20:08:01.066Z,99163.52
2022-12-23T20:10:31.564Z,99154.54
2022-12-23T20:13:02.043Z,99156.44
2022-12-23T20:15:32.569Z,99159.00
2022-12-23T20:18:03.283Z,99161.55
2022-12-23T20:20:34.198Z,99153.69
2022-12-23T20:23:04.892Z,99155.20
2022-12-23T20:25:35.380Z,99159.09
2022-12-23T20:28:06.107Z,99156.69
2022-12-23T20:30:36.576Z,99159.90
2022-12-23T20:33:07.168Z,99160.70
2022-12-23T20:35:38.101Z,99154.70
2022-12-23T20:38:08.946Z,99157.25
2022-12-23T20:40:39.478Z,99156.94
2022-12-23T20:43:15.087Z,99154.59
2022-12-23T20:45:46.369Z,99153.25
2022-12-23T20:48:18.218Z,99145.92
2022-12-23T20:50:48.862Z,99142.36
2022-12-23T20:53:19.277Z,99141.48
2022-12-23T20:55:49.766Z,99153.58
2022-12-23T20:58:37.963Z,99154.08
2022-12-23T21:01:13.340Z,99153.70
2022-12-23T21:03:44.258Z,99153.67
2022-12-23T21:06:14.682Z,99158.61
2022-12-23T21:08:45.320Z,99153.65
2022-12-23T21:11:16.210Z,99154.88
2022-12-23T21:13:49.802Z,99154.41
2022-12-23T21:16:20.648Z,99157.33
2022-12-23T21:18:53.294Z,99155.27
2022-12-23T21:21:26.519Z,99151.02
2022-12-23T21:24:00.060Z,99151.52
2022-12-23T21:26:32.024Z,99151.86
2022-12-23T21:29:03.993Z,99154.04
2022-12-23T21:31:36.794Z,99148.89
2022-12-23T21:34:07.932Z,99148.34
2022-12-23T21:36:40.171Z,99143.88
2022-12-23T21:39:14.608Z,99140.10
2022-12-23T21:41:46.036Z,99135.73
2022-12-23T21:44:16.673Z,99140.88
2022-12-23T21:46:47.288Z,99136.79
2022-12-23T21:49:18.067Z,99127.92
2022-12-23T21:51:48.686Z,99120.44
2022-12-23T21:54:19.215Z,99120.25
2022-12-23T21:56:49.652Z,99112.55
2022-12-23T21:59:20.168Z,99111.33
2022-12-23T22:01:51.240Z,99111.64
2022-12-23T22:04:21.839Z,99109.73
2022-12-23T22:06:52.389Z,99103.23
2022-12-23T22:09:22.831Z,99104.33
2022-12-23T22:11:53.266Z,99101.29
2022-12-23T22:14:23.693Z,99096.36
2022-12-23T22:16:54.247Z,99094.69
2022-12-23T22:19:24.750Z,99092.46
2022-12-23T22:21:55.246Z,99089.06
2022-12-23T22:24:25.772Z,99083.27
2022-12-23T22:26:56.195Z,99081.73
2022-12-23T22:29:26.636Z,99079.69
2022-12-23T22:31:57.205Z,99076.10
2022-12-23T22:34:27.735Z,99073.52
2022-12-23T22:36:58.153Z,99071.29
2022-12-23T22:39:28.922Z,99069.05
2022-12-23T22:41:59.344Z,99064.02
2022-12-23T22:44:29.792Z,99061.11
2022-12-23T22:47:00.233Z,99057.04
2022-12-23T22:49:30.768Z,99057.58
2022-12-23T22:52:01.302Z,99049.39
2022-12-23T22:54:31.717Z,99045.16
2022-12-23T22:57:02.196Z,99043.12
2022-12-23T22:59:32.714Z,99038.48
2022-12-23T23:02:03.239Z,99027.37
2022-12-23T23:04:33.805Z,99025.65
2022-12-23T23:07:04.471Z,99025.09
2022-12-23T23:09:34.995Z,99027.60
2022-12-23T23:12:05.739Z,99031.08
2022-12-23T23:14:50.200Z,99029.41
2022-12-23T23:17:20.859Z,99022.42
2022-12-23T23:19:51.661Z,99011.67
2022-12-23T23:22:23.838Z,99006.90
2022-12-23T23:24:53.031Z,99000.39
2022-12-23T23:27:23.514Z,98996.61
2022-12-23T23:29:54.001Z,98993.18
2022-12-23T23:32:24.542Z,98993.50
2022-12-23T23:34:55.141Z,98998.06
2022-12-23T23:37:25.574Z,99004.17
2022-12-23T23:39:56.030Z,99003.36
2022-12-23T23:42:26.435Z,99003.20
2022-12-23T23:44:56.907Z,99006.10
2022-12-23T23:47:27.366Z,99012.73
2022-12-23T23:49:57.819Z,99013.40
2022-12-23T23:52:28.840Z,99018.65
2022-12-23T23:54:59.300Z,99014.88
2022-12-23T23:57:30.128Z,99019.81
